Time;durP1;ratioP1;P1;durP2;ratioP2;P2;SDS_P1;SDS_P2;PMS_P1;PMS_P2;Temp;Humidity;BMP_temperature;BMP_pressure;BME280_temperature;BME280_humidity;BME280_pressure;Samples;Min_cycle;Max_cycle;Signal;HPM_P1;HPM_P2
2023/12/17 00:00:47;;;;;;;0.30;0.22;;;9.60;99.90;;;;;;4874493;29;20409;-61
2023/12/17 00:03:15;;;;;;;0.50;0.20;;;9.60;99.90;;;;;;4872777;29;20068;-62
2023/12/17 00:05:50;;;;;;;0.10;0.10;;;9.60;99.90;;;;;;4859034;29;20064;-63
2023/12/17 00:08:20;;;;;;;0.55;0.10;;;9.60;99.90;;;;;;4861819;29;20056;-62
2023/12/17 00:10:49;;;;;;;0.10;0.10;;;9.60;99.90;;;;;;4864251;29;20064;-62
2023/12/17 00:13:18;;;;;;;0.45;0.13;;;9.60;99.90;;;;;;4862573;29;20064;-62
2023/12/17 00:15:46;;;;;;;1.38;0.10;;;9.60;99.90;;;;;;4855898;29;20494;-62
2023/12/17 00:18:17;;;;;;;0.05;0.00;;;9.70;99.90;;;;;;4867766;29;20401;-62
2023/12/17 00:20:45;;;;;;;0.17;0.17;;;9.70;99.90;;;;;;4876145;29;20049;-62
2023/12/17 00:23:16;;;;;;;0.10;0.10;;;9.70;99.90;;;;;;4871041;29;20054;-62
2023/12/17 00:25:44;;;;;;;0.25;0.10;;;9.60;99.90;;;;;;4867681;29;20045;-62
2023/12/17 00:28:12;;;;;;;0.20;0.20;;;9.70;99.90;;;;;;4864263;29;20045;-62
2023/12/17 00:30:41;;;;;;;0.80;0.10;;;9.70;99.90;;;;;;4870568;29;20544;-62
2023/12/17 00:33:09;;;;;;;0.20;0.10;;;9.60;99.90;;;;;;4874048;29;20057;-62
2023/12/17 00:35:37;;;;;;;0.32;0.15;;;9.70;99.90;;;;;;4859985;29;20050;-62
2023/12/17 00:38:04;;;;;;;0.30;0.10;;;9.60;99.90;;;;;;4864047;29;20509;-62
2023/12/17 00:40:32;;;;;;;1.00;0.20;;;9.70;99.90;;;;;;4862393;29;20050;-62
2023/12/17 00:43:00;;;;;;;0.68;0.20;;;9.60;99.90;;;;;;4845757;29;20053;-64
2023/12/17 00:45:27;;;;;;;0.50;0.30;;;9.60;99.90;;;;;;4862967;29;20049;-62
2023/12/17 00:47:55;;;;;;;0.10;0.10;;;9.60;99.90;;;;;;4857583;29;20790;-62
2023/12/17 00:50:23;;;;;;;0.43;0.22;;;9.70;99.90;;;;;;4860333;29;20064;-62
2023/12/17 00:52:51;;;;;;;0.32;0.15;;;9.60;99.90;;;;;;4861945;29;20552;-63
2023/12/17 00:55:19;;;;;;;1.67;0.20;;;9.60;99.90;;;;;;4872983;29;20391;-64
2023/12/17 00:57:47;;;;;;;0.50;0.20;;;9.60;99.90;;;;;;4869397;29;20052;-61
2023/12/17 01:00:15;;;;;;;0.85;0.40;;;9.60;99.90;;;;;;4877000;29;20072;-62
2023/12/17 01:02:43;;;;;;;1.05;0.22;;;9.60;99.90;;;;;;4869393;29;20053;-66
2023/12/17 01:05:11;;;;;;;0.73;0.25;;;9.50;99.90;;;;;;4867152;29;20547;-64
2023/12/17 01:07:39;;;;;;;1.30;0.30;;;9.50;99.90;;;;;;4875716;29;20053;-71
2023/12/17 01:10:08;;;;;;;0.77;0.22;;;9.50;99.90;;;;;;4872023;29;20057;-69
2023/12/17 01:12:36;;;;;;;1.80;0.47;;;9.50;99.90;;;;;;4856547;29;20410;-64
2023/12/17 01:15:04;;;;;;;0.17;0.10;;;9.50;99.90;;;;;;4858325;29;20057;-63
2023/12/17 01:17:32;;;;;;;3.92;0.60;;;9.50;99.90;;;;;;4857527;29;20057;-63
2023/12/17 01:20:00;;;;;;;1.13;0.30;;;9.50;99.90;;;;;;4876823;29;20045;-66
2023/12/17 01:22:28;;;;;;;0.93;0.30;;;9.50;99.90;;;;;;4874768;29;20501;-62
2023/12/17 01:24:55;;;;;;;1.25;0.35;;;9.50;99.90;;;;;;4876030;29;20044;-74
2023/12/17 01:27:23;;;;;;;1.90;0.20;;;9.50;99.90;;;;;;4857607;29;20049;-67
2023/12/17 01:29:51;;;;;;;0.80;0.10;;;9.40;99.90;;;;;;4867311;29;20486;-69
2023/12/17 01:32:19;;;;;;;2.38;0.20;;;9.40;99.90;;;;;;4858127;29;20104;-70
2023/12/17 01:34:47;;;;;;;0.30;0.10;;;9.40;99.90;;;;;;4860677;29;20080;-71
2023/12/17 01:37:14;;;;;;;0.77;0.20;;;9.40;99.90;;;;;;4857801;29;20064;-72
2023/12/17 01:39:42;;;;;;;0.75;0.20;;;9.40;99.90;;;;;;4875382;29;20053;-73
2023/12/17 01:42:10;;;;;;;0.10;0.10;;;9.40;99.90;;;;;;4860353;29;20064;-71
2023/12/17 01:44:38;;;;;;;1.08;0.20;;;9.40;99.90;;;;;;4861999;29;20494;-70
2023/12/17 01:47:06;;;;;;;1.42;0.10;;;9.40;99.90;;;;;;4876164;29;20076;-69
2023/12/17 01:49:34;;;;;;;1.25;0.10;;;9.40;99.90;;;;;;4875711;29;20049;-71
2023/12/17 01:52:02;;;;;;;0.17;0.10;;;9.40;99.90;;;;;;4874609;29;20858;-73
2023/12/17 01:54:30;;;;;;;0.17;0.17;;;9.40;99.90;;;;;;4872823;29;20044;-71
2023/12/17 01:56:58;;;;;;;0.20;0.10;;;9.30;99.90;;;;;;4855815;29;20065;-71
2023/12/17 01:59:27;;;;;;;0.13;0.10;;;9.30;99.90;;;;;;4857555;29;20112;-72
2023/12/17 02:01:56;;;;;;;0.47;0.10;;;9.30;99.90;;;;;;4857631;29;20407;-62
2023/12/17 02:04:24;;;;;;;0.68;0.10;;;9.40;99.90;;;;;;4862845;29;20045;-72
2023/12/17 02:06:52;;;;;;;0.40;0.10;;;9.40;99.90;;;;;;4864976;29;20057;-70
2023/12/17 02:09:20;;;;;;;0.00;0.00;;;9.40;99.90;;;;;;4870973;29;20045;-69
2023/12/17 02:11:47;;;;;;;0.40;0.10;;;9.40;99.90;;;;;;4859537;29;20056;-72
2023/12/17 02:14:15;;;;;;;0.15;0.10;;;9.40;99.90;;;;;;4863793;29;20049;-75
2023/12/17 02:16:43;;;;;;;0.10;0.10;;;9.40;99.90;;;;;;4872410;29;20052;-72
2023/12/17 02:19:11;;;;;;;0.10;0.10;;;9.40;99.90;;;;;;4869359;29;20054;-71
2023/12/17 02:21:39;;;;;;;0.10;0.10;;;9.40;99.90;;;;;;4857175;29;20611;-74
2023/12/17 02:24:07;;;;;;;0.10;0.10;;;9.40;99.90;;;;;;4858925;29;20064;-73
2023/12/17 02:26:35;;;;;;;0.10;0.10;;;9.40;99.90;;;;;;4857176;29;20064;-60
2023/12/17 02:29:03;;;;;;;1.23;0.10;;;9.50;99.90;;;;;;4868447;29;20493;-62
2023/12/17 02:31:31;;;;;;;0.80;0.20;;;9.50;99.90;;;;;;4861700;29;20046;-61
2023/12/17 02:33:59;;;;;;;0.40;0.13;;;9.50;99.90;;;;;;4863535;29;20045;-65
2023/12/17 02:36:27;;;;;;;0.30;0.10;;;9.50;99.90;;;;;;4876310;29;20048;-61
2023/12/17 02:38:54;;;;;;;0.40;0.10;;;9.60;99.90;;;;;;4865624;29;20487;-68
2023/12/17 02:41:22;;;;;;;1.02;0.00;;;9.60;99.90;;;;;;4861327;29;20053;-62
2023/12/17 02:43:51;;;;;;;0.00;0.00;;;9.60;99.90;;;;;;4872163;29;20057;-63
2023/12/17 02:46:18;;;;;;;0.08;0.08;;;9.60;99.90;;;;;;4876559;29;20499;-63
2023/12/17 02:48:46;;;;;;;0.10;0.00;;;9.60;99.90;;;;;;4860268;29;20062;-62
2023/12/17 02:51:14;;;;;;;0.10;0.10;;;9.60;99.90;;;;;;4867960;29;20049;-65
2023/12/17 02:53:42;;;;;;;1.23;0.20;;;9.70;99.90;;;;;;4866522;29;20045;-60
2023/12/17 02:56:10;;;;;;;0.60;0.10;;;9.70;99.90;;;;;;4858899;29;20060;-64
2023/12/17 02:58:39;;;;;;;0.00;0.00;;;9.70;99.90;;;;;;4860890;29;20045;-62
2023/12/17 03:01:07;;;;;;;0.00;0.00;;;9.70;99.90;;;;;;4861298;29;20057;-60
2023/12/17 03:03:35;;;;;;;0.10;0.10;;;9.70;99.90;;;;;;4865574;29;20041;-67
2023/12/17 03:06:02;;;;;;;0.15;0.10;;;9.70;99.90;;;;;;4861581;29;20049;-60
2023/12/17 03:08:30;;;;;;;0.28;0.13;;;9.70;99.90;;;;;;4859816;29;20073;-62
2023/12/17 03:10:58;;;;;;;0.10;0.10;;;9.70;99.90;;;;;;4866564;29;20060;-62
2023/12/17 03:13:26;;;;;;;0.65;0.65;;;9.80;99.90;;;;;;4868563;29;20079;-63
2023/12/17 03:15:54;;;;;;;0.70;0.10;;;9.80;99.90;;;;;;4858747;29;20041;-60
2023/12/17 03:18:22;;;;;;;0.10;0.10;;;9.70;99.90;;;;;;4859668;29;20069;-62
2023/12/17 03:20:50;;;;;;;0.10;0.10;;;9.80;99.90;;;;;;4860130;29;20045;-66
2023/12/17 03:23:18;;;;;;;0.20;0.20;;;9.80;99.90;;;;;;4875591;29;20053;-63
2023/12/17 03:25:46;;;;;;;0.65;0.30;;;9.80;99.90;;;;;;4859275;29;20610;-61
2023/12/17 03:28:14;;;;;;;1.40;0.40;;;9.70;99.90;;;;;;4858076;29;20050;-62
2023/12/17 03:30:41;;;;;;;1.85;0.43;;;9.80;99.90;;;;;;4863291;29;20060;-66
2023/12/17 03:33:10;;;;;;;0.70;0.30;;;9.80;99.90;;;;;;4873337;29;20045;-63
2023/12/17 03:35:39;;;;;;;1.08;0.47;;;9.80;99.90;;;;;;4859521;29;20414;-62
2023/12/17 03:38:07;;;;;;;1.30;0.40;;;9.80;99.90;;;;;;4870788;29;20080;-62
2023/12/17 03:40:35;;;;;;;2.53;0.52;;;9.80;99.90;;;;;;4870726;29;20127;-62
2023/12/17 03:43:03;;;;;;;1.08;0.50;;;9.80;99.90;;;;;;4859015;29;20053;-61
2023/12/17 03:45:33;;;;;;;0.98;0.60;;;9.80;99.90;;;;;;4866581;29;20044;-63
2023/12/17 03:48:02;;;;;;;3.77;0.70;;;9.80;99.90;;;;;;4860996;29;20058;-62
2023/12/17 03:50:29;;;;;;;1.42;0.70;;;9.80;99.90;;;;;;4862884;29;20489;-63
2023/12/17 03:52:57;;;;;;;1.15;0.68;;;9.70;99.90;;;;;;4859179;29;20049;-62
2023/12/17 03:55:25;;;;;;;5.38;1.73;;;9.70;99.90;;;;;;4860874;29;20061;-63
2023/12/17 03:57:53;;;;;;;5.22;0.80;;;9.70;99.90;;;;;;4867937;29;20061;-65
2023/12/17 04:00:20;;;;;;;4.80;1.10;;;9.70;99.90;;;;;;4863349;29;20057;-66
2023/12/17 04:02:48;;;;;;;4.40;0.98;;;9.70;99.90;;;;;;4880485;29;20053;-60
2023/12/17 04:05:16;;;;;;;5.70;1.27;;;9.70;99.90;;;;;;4879186;29;20053;-63
2023/12/17 04:07:44;;;;;;;3.15;1.00;;;9.70;99.90;;;;;;4868305;29;20046;-66
2023/12/17 04:10:12;;;;;;;4.90;0.90;;;9.70;99.90;;;;;;4861858;29;20057;-62
2023/12/17 04:12:39;;;;;;;4.20;0.98;;;9.70;99.90;;;;;;4864878;29;20049;-62
2023/12/17 04:15:10;;;;;;;3.58;1.02;;;9.70;99.90;;;;;;4864707;29;20060;-62
2023/12/17 04:17:38;;;;;;;5.68;0.90;;;9.70;99.90;;;;;;4861821;29;20053;-63
2023/12/17 04:20:06;;;;;;;5.00;0.80;;;9.70;99.90;;;;;;4862335;29;20049;-62
2023/12/17 04:22:34;;;;;;;5.10;1.33;;;9.70;99.90;;;;;;4877123;29;20045;-62
2023/12/17 04:25:02;;;;;;;4.93;1.20;;;9.70;99.90;;;;;;4881074;29;20414;-62
2023/12/17 04:27:30;;;;;;;5.18;1.00;;;9.70;99.90;;;;;;4877636;29;20049;-61
2023/12/17 04:29:58;;;;;;;7.57;1.30;;;9.70;99.90;;;;;;4874521;29;20061;-63
2023/12/17 04:32:26;;;;;;;6.30;1.17;;;9.70;99.90;;;;;;4875589;29;20414;-61
2023/12/17 04:34:55;;;;;;;4.45;0.85;;;9.70;99.90;;;;;;4880969;29;20049;-64
2023/12/17 04:37:23;;;;;;;5.80;0.98;;;9.70;99.90;;;;;;4879648;29;20055;-64
2023/12/17 04:39:51;;;;;;;4.15;1.25;;;9.70;99.90;;;;;;4871510;29;20069;-62
2023/12/17 04:42:18;;;;;;;5.40;1.13;;;9.70;99.90;;;;;;4866522;29;20509;-61
2023/12/17 04:44:47;;;;;;;5.30;1.15;;;9.70;99.90;;;;;;4865127;29;20397;-63
2023/12/17 04:47:15;;;;;;;7.43;1.37;;;9.70;99.90;;;;;;4862063;29;20054;-64
2023/12/17 04:49:43;;;;;;;3.03;0.88;;;9.70;99.90;;;;;;4863575;29;20069;-71
2023/12/17 04:52:11;;;;;;;4.07;1.20;;;9.70;99.90;;;;;;4866472;29;20053;-72
2023/12/17 04:54:39;;;;;;;4.40;1.13;;;9.70;99.90;;;;;;4861928;29;20402;-69
2023/12/17 04:57:06;;;;;;;3.45;1.25;;;9.60;99.90;;;;;;4861746;29;20060;-72
2023/12/17 04:59:34;;;;;;;4.28;1.02;;;9.60;99.90;;;;;;4863286;29;20046;-73
2023/12/17 05:02:02;;;;;;;6.28;1.58;;;9.60;99.90;;;;;;4879067;29;20057;-71
2023/12/17 05:04:30;;;;;;;4.90;1.33;;;9.60;99.90;;;;;;4877828;29;20056;-71
2023/12/17 05:06:58;;;;;;;5.50;1.00;;;9.60;99.90;;;;;;4861034;29;20504;-64
2023/12/17 05:09:26;;;;;;;4.72;0.80;;;9.60;99.90;;;;;;4875514;29;20409;-65
2023/12/17 05:11:53;;;;;;;6.20;1.25;;;9.60;99.90;;;;;;4877063;29;20052;-65
2023/12/17 05:14:21;;;;;;;4.65;0.70;;;9.60;99.90;;;;;;4877170;29;20528;-63
2023/12/17 05:16:49;;;;;;;6.07;1.23;;;9.60;99.90;;;;;;4865528;29;20054;-66
2023/12/17 05:19:17;;;;;;;10.55;1.33;;;9.60;99.90;;;;;;4861521;29;20056;-60
2023/12/17 05:21:45;;;;;;;8.57;1.90;;;9.60;99.90;;;;;;4868396;29;20049;-60
2023/12/17 05:24:12;;;;;;;5.35;1.08;;;9.60;99.90;;;;;;4879854;29;20060;-62
2023/12/17 05:26:40;;;;;;;7.75;1.25;;;9.60;99.90;;;;;;4861657;29;20046;-60
2023/12/17 05:29:09;;;;;;;7.07;1.10;;;9.60;99.90;;;;;;4868467;29;20045;-70
2023/12/17 05:31:36;;;;;;;10.63;1.10;;;9.60;99.90;;;;;;4868535;29;20422;-72
2023/12/17 05:34:08;;;;;;;9.65;1.30;;;9.60;99.90;;;;;;4864890;29;20057;-72
2023/12/17 05:36:36;;;;;;;3.88;0.80;;;9.60;99.90;;;;;;4864518;29;20038;-74
2023/12/17 05:39:04;;;;;;;6.18;1.00;;;9.60;99.90;;;;;;4861292;29;20058;-74
2023/12/17 05:41:32;;;;;;;6.90;1.30;;;9.50;99.90;;;;;;4863730;29;20037;-72
2023/12/17 05:44:00;;;;;;;4.72;1.08;;;9.60;99.90;;;;;;4863145;29;20049;-71
2023/12/17 05:46:27;;;;;;;8.05;2.20;;;9.60;99.90;;;;;;4861011;29;20050;-72
2023/12/17 05:48:55;;;;;;;8.48;1.13;;;9.50;99.90;;;;;;4860736;29;20048;-72
2023/12/17 05:51:23;;;;;;;2.78;0.90;;;9.50;99.90;;;;;;4861033;29;20056;-73
2023/12/17 05:53:51;;;;;;;10.23;1.77;;;9.50;99.90;;;;;;4875111;29;20049;-64
2023/12/17 05:56:19;;;;;;;9.07;1.02;;;9.50;99.90;;;;;;4876012;29;20751;-63
2023/12/17 05:58:47;;;;;;;5.75;1.30;;;9.50;99.90;;;;;;4873256;29;20490;-60
2023/12/17 06:01:14;;;;;;;5.63;1.40;;;9.50;99.90;;;;;;4857516;29;20065;-60
2023/12/17 06:03:43;;;;;;;7.93;1.60;;;9.50;99.90;;;;;;4853658;29;20058;-68
2023/12/17 06:06:11;;;;;;;13.73;1.20;;;9.50;99.90;;;;;;4853179;29;20068;-67
2023/12/17 06:08:39;;;;;;;8.48;2.00;;;9.50;99.90;;;;;;4867763;29;20375;-64
2023/12/17 06:11:06;;;;;;;9.18;1.73;;;9.40;99.90;;;;;;4861740;29;20528;-70
2023/12/17 06:13:35;;;;;;;7.18;1.05;;;9.40;99.90;;;;;;4870048;29;20076;-65
2023/12/17 06:16:04;;;;;;;8.38;1.48;;;9.40;99.90;;;;;;4873409;29;20220;-70
2023/12/17 06:18:32;;;;;;;11.60;1.52;;;9.40;99.90;;;;;;4865766;29;20054;-66
2023/12/17 06:21:01;;;;;;;9.35;1.08;;;9.30;99.90;;;;;;4856969;29;20041;-63
2023/12/17 06:23:31;;;;;;;11.15;1.25;;;9.30;99.90;;;;;;4861807;29;20053;-65
2023/12/17 06:26:04;;;;;;;12.67;1.70;;;9.30;99.90;;;;;;4856042;29;20788;-66
2023/12/17 06:28:32;;;;;;;9.30;1.10;;;9.20;99.90;;;;;;4865156;29;20296;-64
2023/12/17 06:30:59;;;;;;;7.55;1.40;;;9.20;99.90;;;;;;4875176;29;20045;-69
2023/12/17 06:33:28;;;;;;;7.32;1.10;;;9.10;99.90;;;;;;4861136;29;20061;-69
2023/12/17 06:35:56;;;;;;;11.10;1.95;;;9.00;99.90;;;;;;4856894;29;20588;-66
2023/12/17 06:38:24;;;;;;;7.65;1.88;;;9.00;99.90;;;;;;4859172;29;20057;-69
2023/12/17 06:40:54;;;;;;;5.30;1.35;;;9.00;99.90;;;;;;4872256;29;20529;-72
2023/12/17 06:43:22;;;;;;;9.60;1.50;;;9.00;99.90;;;;;;4867913;29;20057;-68
2023/12/17 06:45:50;;;;;;;16.35;1.85;;;8.90;99.90;;;;;;4859865;29;20053;-65
2023/12/17 06:48:18;;;;;;;10.20;1.50;;;8.90;99.90;;;;;;4869837;29;20049;-72
2023/12/17 06:50:46;;;;;;;9.88;1.42;;;8.90;99.90;;;;;;4864969;29;20049;-70
2023/12/17 06:53:16;;;;;;;10.35;2.75;;;8.90;99.90;;;;;;4866089;29;20064;-62
2023/12/17 06:55:44;;;;;;;9.77;1.70;;;8.90;99.90;;;;;;4873151;29;20057;-62
2023/12/17 06:58:12;;;;;;;8.15;1.98;;;8.80;99.90;;;;;;4865718;29;20065;-61
2023/12/17 07:00:40;;;;;;;9.48;1.42;;;8.80;99.90;;;;;;4851784;29;20060;-59
2023/12/17 07:03:08;;;;;;;10.38;1.40;;;8.80;99.90;;;;;;4858167;29;20271;-62
2023/12/17 07:05:36;;;;;;;6.88;1.42;;;8.80;99.90;;;;;;4858290;29;20068;-60
2023/12/17 07:08:04;;;;;;;7.22;1.55;;;8.80;99.90;;;;;;4856112;29;20068;-61
2023/12/17 07:10:32;;;;;;;10.68;1.40;;;8.80;99.90;;;;;;4857118;29;20533;-59
2023/12/17 07:12:59;;;;;;;12.65;1.33;;;8.80;99.90;;;;;;4874250;29;20045;-63
2023/12/17 07:15:27;;;;;;;9.60;1.70;;;8.80;99.90;;;;;;4866589;29;20045;-61
2023/12/17 07:17:55;;;;;;;8.52;1.45;;;8.80;99.90;;;;;;4858349;29;20057;-61
2023/12/17 07:20:23;;;;;;;6.18;1.73;;;8.80;99.90;;;;;;4872939;29;20050;-65
2023/12/17 07:22:51;;;;;;;8.45;1.23;;;8.80;99.90;;;;;;4852546;29;20056;-60
2023/12/17 07:25:19;;;;;;;8.43;1.45;;;8.80;99.90;;;;;;4857414;29;20065;-62
2023/12/17 07:27:47;;;;;;;8.65;1.50;;;8.80;99.90;;;;;;4868442;29;20049;-61
2023/12/17 07:30:19;;;;;;;3.53;1.02;;;8.80;99.90;;;;;;4855904;29;20405;-62
2023/12/17 07:32:47;;;;;;;10.82;2.03;;;8.90;99.90;;;;;;4857474;29;20045;-61
2023/12/17 07:35:15;;;;;;;9.48;1.70;;;8.90;99.90;;;;;;4863686;29;20044;-62
2023/12/17 07:37:43;;;;;;;11.05;2.30;;;8.90;99.90;;;;;;4854976;29;20045;-61
2023/12/17 07:40:11;;;;;;;9.80;1.88;;;8.90;99.90;;;;;;4853178;29;20049;-60
2023/12/17 07:42:41;;;;;;;11.68;1.80;;;8.90;99.90;;;;;;4856443;29;20241;-62
2023/12/17 07:45:09;;;;;;;11.00;1.83;;;9.00;99.90;;;;;;4858169;29;20057;-60
2023/12/17 07:47:37;;;;;;;13.20;2.50;;;9.00;99.90;;;;;;4861431;29;20053;-61
2023/12/17 07:50:08;;;;;;;13.50;1.95;;;9.00;99.90;;;;;;4869240;29;20143;-62
2023/12/17 07:52:35;;;;;;;12.63;1.63;;;9.00;99.90;;;;;;4872431;29;20502;-62
2023/12/17 07:55:04;;;;;;;5.25;1.27;;;9.10;99.90;;;;;;4863142;29;20053;-60
2023/12/17 07:57:33;;;;;;;10.30;1.60;;;9.00;99.90;;;;;;4855936;29;20056;-65
2023/12/17 08:00:01;;;;;;;6.47;1.40;;;9.10;99.90;;;;;;4854192;29;20049;-60
2023/12/17 08:02:38;;;;;;;11.75;1.85;;;9.10;99.90;;;;;;4852286;29;20041;-62
2023/12/17 08:05:07;;;;;;;7.45;1.85;;;9.10;99.90;;;;;;4851729;29;20409;-62
2023/12/17 08:07:37;;;;;;;14.17;1.83;;;9.20;99.90;;;;;;4868986;29;20049;-62
2023/12/17 08:10:07;;;;;;;7.90;1.80;;;9.20;99.90;;;;;;4871688;29;20506;-62
2023/12/17 08:12:34;;;;;;;12.65;1.73;;;9.20;99.90;;;;;;4861291;29;20045;-61
2023/12/17 08:15:04;;;;;;;11.07;1.65;;;9.30;99.90;;;;;;4856139;29;20371;-62
2023/12/17 08:17:32;;;;;;;10.93;1.50;;;9.30;99.90;;;;;;4865646;29;20052;-62
2023/12/17 08:20:00;;;;;;;10.15;1.40;;;9.30;99.90;;;;;;4861430;29;20049;-60
2023/12/17 08:22:27;;;;;;;15.23;2.00;;;9.40;99.90;;;;;;4858551;29;20053;-64
2023/12/17 08:24:55;;;;;;;14.30;1.80;;;9.40;99.90;;;;;;4874214;29;20057;-61
2023/12/17 08:27:23;;;;;;;11.18;1.33;;;9.40;99.90;;;;;;4862534;29;20045;-60
2023/12/17 08:29:51;;;;;;;12.55;1.45;;;9.40;99.90;;;;;;4870826;29;20494;-62
2023/12/17 08:32:20;;;;;;;11.23;1.95;;;9.40;99.90;;;;;;4872607;29;20045;-61
2023/12/17 08:34:48;;;;;;;15.43;2.28;;;9.40;99.90;;;;;;4857317;29;20080;-61
2023/12/17 08:37:16;;;;;;;13.68;2.40;;;9.50;99.90;;;;;;4879826;29;20541;-63
2023/12/17 08:39:44;;;;;;;10.77;2.25;;;9.50;99.90;;;;;;4873597;29;20529;-60
2023/12/17 08:42:12;;;;;;;10.30;1.52;;;9.50;99.90;;;;;;4874851;29;20608;-60
2023/12/17 08:44:39;;;;;;;17.77;2.40;;;9.50;99.90;;;;;;4871838;29;20048;-66
2023/12/17 08:47:07;;;;;;;11.98;1.60;;;9.50;99.90;;;;;;4871861;29;20054;-61
2023/12/17 08:49:36;;;;;;;10.70;2.47;;;9.50;99.90;;;;;;4867524;29;20052;-60
2023/12/17 08:52:05;;;;;;;9.32;1.58;;;9.50;99.90;;;;;;4858690;29;20064;-62
2023/12/17 08:54:32;;;;;;;7.20;1.73;;;9.50;99.90;;;;;;4875109;29;20056;-60
2023/12/17 08:57:00;;;;;;;15.20;1.60;;;9.60;99.90;;;;;;4858323;29;20061;-60
2023/12/17 08:59:28;;;;;;;14.07;2.38;;;9.60;99.90;;;;;;4859816;29;20061;-64
2023/12/17 09:01:57;;;;;;;12.63;1.70;;;9.60;99.90;;;;;;4858594;29;20058;-62
2023/12/17 09:04:24;;;;;;;12.98;1.80;;;9.60;99.90;;;;;;4866519;29;20049;-62
2023/12/17 09:06:52;;;;;;;13.52;1.58;;;9.60;99.90;;;;;;4858310;29;20058;-63
2023/12/17 09:09:20;;;;;;;7.88;1.30;;;9.70;99.90;;;;;;4862736;29;20386;-70
2023/12/17 09:11:48;;;;;;;8.80;1.60;;;9.70;99.90;;;;;;4861167;29;20065;-67
2023/12/17 09:14:15;;;;;;;10.10;2.22;;;9.70;99.90;;;;;;4876175;29;20312;-66
2023/12/17 09:16:43;;;;;;;12.57;2.05;;;9.80;99.90;;;;;;4862629;29;20068;-67
2023/12/17 09:19:11;;;;;;;12.75;1.42;;;9.80;99.90;;;;;;4862478;29;20052;-71
2023/12/17 09:21:40;;;;;;;10.95;2.13;;;9.80;99.90;;;;;;4858138;29;20075;-70
2023/12/17 09:24:08;;;;;;;9.32;1.30;;;9.80;99.90;;;;;;4869904;29;20054;-68
2023/12/17 09:26:36;;;;;;;14.13;2.22;;;9.80;99.90;;;;;;4868502;29;20056;-71
2023/12/17 09:29:04;;;;;;;7.50;1.55;;;9.90;99.90;;;;;;4869849;29;20371;-68
2023/12/17 09:31:31;;;;;;;10.15;1.40;;;9.90;99.90;;;;;;4843649;29;20053;-70
2023/12/17 09:33:59;;;;;;;12.70;2.28;;;9.90;99.90;;;;;;4871380;29;20409;-64
2023/12/17 09:36:27;;;;;;;13.93;2.95;;;9.90;99.90;;;;;;4857763;29;20057;-62
2023/12/17 09:38:56;;;;;;;9.52;1.40;;;9.90;99.90;;;;;;4867550;29;20056;-63
2023/12/17 09:41:24;;;;;;;8.45;2.53;;;9.90;99.90;;;;;;4862277;29;20045;-63
2023/12/17 09:43:52;;;;;;;12.10;2.47;;;10.00;99.90;;;;;;4861154;29;20053;-66
2023/12/17 09:46:20;;;;;;;11.90;2.08;;;9.90;99.90;;;;;;4871589;29;20049;-62
2023/12/17 09:48:48;;;;;;;4.78;1.20;;;9.90;99.90;;;;;;4859629;29;20502;-61
2023/12/17 09:51:18;;;;;;;9.52;1.80;;;10.00;99.90;;;;;;4862452;29;20052;-63
2023/12/17 09:53:46;;;;;;;9.23;2.58;;;10.00;99.90;;;;;;4876579;29;20435;-63
2023/12/17 09:56:14;;;;;;;6.18;1.50;;;10.00;99.90;;;;;;4863239;29;20565;-61
2023/12/17 09:58:43;;;;;;;8.07;1.23;;;10.00;99.90;;;;;;4873562;29;20633;-66
2023/12/17 10:01:11;;;;;;;15.40;1.70;;;10.00;99.90;;;;;;4858218;29;20062;-64
2023/12/17 10:03:39;;;;;;;9.70;1.50;;;10.00;99.90;;;;;;4862298;29;20042;-63
2023/12/17 10:06:07;;;;;;;11.57;1.40;;;10.00;99.90;;;;;;4858274;29;20411;-61
2023/12/17 10:08:36;;;;;;;12.82;2.78;;;10.10;99.90;;;;;;4857187;29;20049;-62
2023/12/17 10:11:04;;;;;;;11.23;1.58;;;10.10;99.90;;;;;;4862434;29;20065;-61
2023/12/17 10:13:32;;;;;;;11.10;1.45;;;10.10;99.90;;;;;;4856390;29;20046;-62
2023/12/17 10:16:00;;;;;;;12.43;2.22;;;10.10;99.90;;;;;;4857096;29;20506;-62
2023/12/17 10:18:29;;;;;;;9.45;1.85;;;10.10;99.90;;;;;;4859390;29;20041;-62
2023/12/17 10:20:57;;;;;;;14.73;1.63;;;10.20;99.90;;;;;;4857757;29;20050;-64
2023/12/17 10:23:25;;;;;;;13.68;2.03;;;10.20;99.90;;;;;;4863742;29;20393;-63
2023/12/17 10:26:00;;;;;;;11.48;1.92;;;10.20;99.90;;;;;;4861467;29;20052;-67
2023/12/17 10:28:29;;;;;;;13.75;1.33;;;10.20;99.90;;;;;;4871758;29;20048;-63
2023/12/17 10:30:58;;;;;;;9.77;1.50;;;10.30;99.90;;;;;;4874679;29;20053;-62
2023/12/17 10:33:31;;;;;;;8.38;1.70;;;10.30;99.90;;;;;;4874741;29;20076;-62
2023/12/17 10:36:00;;;;;;;7.35;1.25;;;10.30;99.90;;;;;;4862298;29;20041;-64
2023/12/17 10:38:29;;;;;;;14.98;1.80;;;10.30;99.90;;;;;;4856492;29;20064;-61
2023/12/17 10:40:58;;;;;;;10.60;1.80;;;10.30;99.90;;;;;;4869934;29;20045;-61
2023/12/17 10:43:28;;;;;;;11.05;1.42;;;10.40;99.90;;;;;;4859655;29;20542;-61
2023/12/17 10:45:58;;;;;;;14.10;1.83;;;10.40;99.90;;;;;;4856806;29;20590;-63
2023/12/17 10:48:26;;;;;;;14.32;1.48;;;10.40;99.90;;;;;;4863111;29;20056;-62
2023/12/17 10:50:56;;;;;;;12.57;1.80;;;10.50;99.90;;;;;;4858554;29;20053;-63
2023/12/17 10:53:24;;;;;;;9.18;1.73;;;10.50;99.90;;;;;;4867452;29;20073;-61
2023/12/17 10:55:51;;;;;;;16.65;1.73;;;10.60;99.90;;;;;;4873246;29;20049;-61
2023/12/17 10:58:22;;;;;;;11.43;1.63;;;10.50;99.90;;;;;;4855859;29;20049;-61
2023/12/17 11:00:50;;;;;;;10.82;1.25;;;10.60;99.90;;;;;;4863631;29;20124;-62
2023/12/17 11:03:23;;;;;;;10.35;1.73;;;10.60;99.90;;;;;;4857269;29;20061;-61
2023/12/17 11:05:58;;;;;;;7.15;1.52;;;10.50;99.90;;;;;;4872538;29;20049;-62
2023/12/17 11:08:28;;;;;;;13.13;2.30;;;10.60;99.90;;;;;;4865279;29;20497;-62
2023/12/17 11:10:58;;;;;;;11.35;1.25;;;10.60;99.90;;;;;;4868065;29;20053;-62
2023/12/17 11:13:26;;;;;;;10.82;2.17;;;10.50;99.90;;;;;;4866221;29;20055;-61
2023/12/17 11:15:55;;;;;;;8.15;1.85;;;10.50;99.90;;;;;;4865823;29;20064;-64
2023/12/17 11:18:34;;;;;;;13.05;1.98;;;10.50;99.90;;;;;;4865642;29;20037;-63
2023/12/17 11:21:03;;;;;;;14.18;1.60;;;10.50;99.90;;;;;;4855931;29;20057;-65
2023/12/17 11:23:31;;;;;;;15.57;2.20;;;10.50;99.90;;;;;;4867859;29;20053;-62
2023/12/17 11:26:00;;;;;;;11.18;1.77;;;10.50;99.90;;;;;;4870053;29;20049;-62
2023/12/17 11:28:30;;;;;;;8.90;1.50;;;10.50;99.90;;;;;;4863275;29;20424;-65
2023/12/17 11:30:58;;;;;;;6.57;1.38;;;10.60;99.90;;;;;;4850939;29;20045;-68
2023/12/17 11:33:27;;;;;;;10.77;2.08;;;10.60;99.90;;;;;;4863904;29;20061;-61
2023/12/17 11:35:55;;;;;;;7.53;1.48;;;10.60;99.90;;;;;;4870821;29;20045;-63
2023/12/17 11:38:23;;;;;;;12.43;1.80;;;10.60;99.90;;;;;;4859676;29;20450;-61
2023/12/17 11:40:51;;;;;;;11.90;1.80;;;10.60;99.90;;;;;;4868559;29;20406;-61
2023/12/17 11:43:23;;;;;;;9.30;1.60;;;10.60;99.90;;;;;;4865946;29;20056;-62
2023/12/17 11:45:52;;;;;;;16.40;1.63;;;10.60;99.90;;;;;;4867327;29;20049;-62
2023/12/17 11:48:21;;;;;;;19.05;2.75;;;10.60;99.90;;;;;;4847506;29;20056;-61
2023/12/17 11:50:56;;;;;;;9.33;1.13;;;10.60;99.90;;;;;;4872916;29;20571;-62
2023/12/17 11:53:30;;;;;;;9.35;1.55;;;10.70;99.90;;;;;;4858524;29;20330;-61
2023/12/17 11:56:07;;;;;;;10.13;1.70;;;10.70;99.90;;;;;;4856036;29;20064;-63
2023/12/17 11:58:48;;;;;;;11.73;2.25;;;10.70;99.90;;;;;;4868801;29;20049;-61
2023/12/17 12:01:16;;;;;;;14.82;1.60;;;10.70;99.90;;;;;;4859379;29;20502;-61
2023/12/17 12:03:44;;;;;;;13.43;1.80;;;10.70;99.90;;;;;;4861624;29;20045;-62
2023/12/17 12:06:14;;;;;;;7.68;1.70;;;10.70;99.90;;;;;;4853499;29;20500;-63
2023/12/17 12:08:48;;;;;;;16.35;2.30;;;10.70;99.90;;;;;;4865512;29;20065;-64
2023/12/17 12:11:19;;;;;;;10.73;2.03;;;10.70;99.90;;;;;;4866437;29;20057;-62
2023/12/17 12:13:48;;;;;;;5.25;1.15;;;10.70;99.90;;;;;;4873467;29;20048;-61
2023/12/17 12:16:17;;;;;;;9.35;1.67;;;10.70;99.90;;;;;;4860229;29;20065;-64
2023/12/17 12:18:59;;;;;;;9.43;1.40;;;10.70;99.90;;;;;;4861152;29;20045;-66
2023/12/17 12:21:28;;;;;;;9.57;1.55;;;10.70;99.90;;;;;;4859943;29;20053;-61
2023/12/17 12:23:57;;;;;;;6.15;1.30;;;10.70;99.90;;;;;;4872922;29;20045;-61
2023/12/17 12:26:25;;;;;;;10.10;1.52;;;10.80;99.90;;;;;;4877506;29;20053;-62
2023/12/17 12:29:06;;;;;;;5.78;1.67;;;10.80;99.90;;;;;;4877058;29;20053;-61
2023/12/17 12:31:35;;;;;;;9.55;1.88;;;10.80;99.90;;;;;;4868041;29;20049;-63
2023/12/17 12:34:04;;;;;;;9.35;1.23;;;10.70;99.90;;;;;;4860519;29;20045;-63
2023/12/17 12:36:47;;;;;;;9.40;1.00;;;10.80;99.90;;;;;;4858704;29;20072;-61
2023/12/17 12:39:18;;;;;;;6.25;1.30;;;10.80;99.90;;;;;;4859326;29;20049;-61
2023/12/17 12:41:47;;;;;;;7.55;1.17;;;10.80;99.90;;;;;;4858801;29;20624;-71
2023/12/17 12:44:16;;;;;;;10.77;1.60;;;10.80;99.90;;;;;;4875459;29;20440;-66
2023/12/17 12:46:48;;;;;;;12.30;1.73;;;10.80;99.90;;;;;;4867046;29;20049;-66
2023/12/17 12:49:17;;;;;;;8.65;1.30;;;10.80;99.90;;;;;;4873339;29;20402;-65
2023/12/17 12:51:47;;;;;;;6.10;1.10;;;10.80;99.90;;;;;;4859477;29;20057;-61
2023/12/17 12:54:15;;;;;;;5.72;1.05;;;10.80;99.90;;;;;;4875016;29;20091;-61
2023/12/17 12:56:44;;;;;;;6.43;1.30;;;10.80;99.90;;;;;;4869173;29;20061;-61